Time;durP1;ratioP1;P1;durP2;ratioP2;P2;SDS_P1;SDS_P2;PMS_P1;PMS_P2;Temp;Humidity;BMP_temperature;BMP_pressure;BME280_temperature;BME280_humidity;BME280_pressure;Samples;Min_cycle;Max_cycle;Signal;HPM_P1;HPM_P2
2023/12/15 08:14:46;;;;;;;0.20;0.20;;;5.70;99.90;;;;;;5027307;27;1569054;-74
2023/12/15 08:17:12;;;;;;;0.20;0.20;;;5.70;99.90;;;;;;5060724;28;20398;-74
2023/12/15 08:19:38;;;;;;;0.20;0.20;;;5.60;99.90;;;;;;5067008;28;20052;-75
2023/12/15 08:22:04;;;;;;;0.20;0.20;;;5.70;99.90;;;;;;5064864;28;20056;-75
2023/12/15 08:24:29;;;;;;;0.20;0.20;;;5.70;99.90;;;;;;5065833;28;20056;-75
2023/12/15 08:26:57;;;;;;;0.20;0.20;;;5.80;99.90;;;;;;5064895;28;20037;-73
2023/12/15 08:29:23;;;;;;;0.20;0.20;;;5.80;99.90;;;;;;5059107;28;20124;-73
2023/12/15 08:31:49;;;;;;;0.20;0.20;;;5.90;99.90;;;;;;5047265;28;20112;-73
2023/12/15 08:34:16;;;;;;;0.20;0.20;;;6.00;99.90;;;;;;5060859;28;20053;-74
2023/12/15 08:36:42;;;;;;;0.20;0.20;;;6.10;99.90;;;;;;5046611;28;20076;-74
2023/12/15 08:39:08;;;;;;;0.20;0.20;;;6.10;99.90;;;;;;5045435;28;20467;-74
2023/12/15 08:41:33;;;;;;;0.20;0.20;;;6.10;99.90;;;;;;5045016;28;20473;-74
2023/12/15 08:43:59;;;;;;;0.20;0.20;;;6.20;99.90;;;;;;5046712;28;20075;-74
2023/12/15 08:46:25;;;;;;;0.20;0.20;;;6.20;99.90;;;;;;5048914;28;20155;-73
2023/12/15 08:48:51;;;;;;;0.20;0.20;;;6.30;99.90;;;;;;5061314;28;20052;-74
2023/12/15 08:51:17;;;;;;;0.20;0.20;;;6.30;99.90;;;;;;5053393;28;20037;-74
2023/12/15 08:53:43;;;;;;;0.20;0.20;;;6.30;99.90;;;;;;5064544;28;20040;-74
2023/12/15 08:56:09;;;;;;;0.20;0.20;;;6.40;99.90;;;;;;5049443;28;20484;-75
2023/12/15 08:58:35;;;;;;;0.20;0.20;;;6.40;99.90;;;;;;5048231;28;20124;-75
2023/12/15 09:01:01;;;;;;;0.20;0.20;;;6.70;99.90;;;;;;5045826;28;20041;-76
2023/12/15 09:03:27;;;;;;;0.20;0.20;;;6.50;99.90;;;;;;5056237;28;20045;-75
2023/12/15 09:05:54;;;;;;;0.20;0.20;;;6.50;99.90;;;;;;5053198;28;20053;-76
2023/12/15 09:08:19;;;;;;;0.20;0.20;;;6.50;99.90;;;;;;5048890;28;20523;-76
2023/12/15 09:10:50;;;;;;;0.20;0.20;;;6.70;99.90;;;;;;5047208;28;20045;-75
2023/12/15 09:13:19;;;;;;;0.20;0.20;;;6.70;99.90;;;;;;5055969;28;20061;-75
2023/12/15 09:15:45;;;;;;;0.20;0.20;;;6.70;99.90;;;;;;5064593;28;20234;-75
2023/12/15 09:18:10;;;;;;;0.20;0.20;;;6.90;99.90;;;;;;5056369;28;20132;-75
2023/12/15 09:20:36;;;;;;;0.20;0.20;;;6.70;99.90;;;;;;5057337;28;20056;-75
2023/12/15 09:23:09;;;;;;;0.20;0.20;;;6.70;99.90;;;;;;5051201;28;20045;-76
2023/12/15 09:25:36;;;;;;;0.20;0.20;;;7.00;99.90;;;;;;5044934;28;20061;-76
2023/12/15 09:28:05;;;;;;;0.20;0.20;;;6.80;99.90;;;;;;5038250;28;20159;-76
2023/12/15 09:30:31;;;;;;;0.20;0.20;;;6.80;99.90;;;;;;5039109;28;20118;-76
2023/12/15 09:32:57;;;;;;;0.20;0.20;;;7.10;99.90;;;;;;5036643;28;20045;-76
2023/12/15 09:35:22;;;;;;;0.20;0.20;;;6.90;99.90;;;;;;5040884;28;20047;-77
2023/12/15 09:37:48;;;;;;;0.20;0.20;;;7.20;99.90;;;;;;5035929;28;20055;-74
2023/12/15 09:40:14;;;;;;;0.20;0.20;;;7.00;99.90;;;;;;5033419;28;20049;-74
2023/12/15 09:42:40;;;;;;;0.20;0.20;;;7.00;99.90;;;;;;5039737;28;20421;-75
2023/12/15 09:45:06;;;;;;;0.20;0.20;;;7.10;99.90;;;;;;5038068;28;20640;-74
2023/12/15 09:47:35;;;;;;;0.20;0.20;;;7.10;99.90;;;;;;5039488;28;20551;-76
2023/12/15 09:50:06;;;;;;;0.20;0.20;;;7.20;99.90;;;;;;5047981;28;20056;-76
2023/12/15 09:52:34;;;;;;;0.20;0.20;;;7.20;99.90;;;;;;5039019;28;20427;-75
2023/12/15 09:54:59;;;;;;;0.20;0.20;;;7.30;99.90;;;;;;5032967;28;20124;-77
2023/12/15 09:57:26;;;;;;;0.20;0.20;;;7.40;99.90;;;;;;5040956;28;20548;-77
2023/12/15 09:59:52;;;;;;;0.20;0.20;;;7.40;99.90;;;;;;5038062;28;20059;-75
2023/12/15 10:02:18;;;;;;;0.20;0.20;;;7.40;99.90;;;;;;5042427;28;20036;-75
2023/12/15 10:04:44;;;;;;;0.20;0.20;;;7.40;99.90;;;;;;5038284;28;20540;-74
2023/12/15 10:07:10;;;;;;;0.20;0.20;;;7.60;99.90;;;;;;5033778;28;20128;-75
2023/12/15 10:09:39;;;;;;;0.20;0.20;;;7.60;99.90;;;;;;5041334;28;20030;-74
2023/12/15 10:12:09;;;;;;;0.20;0.20;;;7.70;99.90;;;;;;5036252;28;20384;-74
2023/12/15 10:14:38;;;;;;;0.20;0.20;;;7.70;99.90;;;;;;5032963;28;20107;-74
2023/12/15 10:17:09;;;;;;;0.10;0.10;;;7.80;99.90;;;;;;5039237;28;20128;-75
2023/12/15 10:19:35;;;;;;;0.20;0.20;;;7.80;99.90;;;;;;5035655;28;20064;-75
2023/12/15 10:22:02;;;;;;;0.20;0.20;;;7.80;99.90;;;;;;5034448;28;20053;-75
2023/12/15 10:24:28;;;;;;;0.20;0.20;;;7.80;99.90;;;;;;5039577;28;20033;-75
2023/12/15 10:26:53;;;;;;;0.20;0.20;;;7.90;99.90;;;;;;5044748;28;20053;-73
2023/12/15 10:29:20;;;;;;;0.10;0.10;;;7.90;99.90;;;;;;5032037;28;20411;-76
2023/12/15 10:31:51;;;;;;;0.20;0.20;;;7.90;99.90;;;;;;5038356;28;20045;-74
2023/12/15 10:34:17;;;;;;;0.20;0.20;;;7.90;99.90;;;;;;5032629;28;20552;-74
2023/12/15 10:36:47;;;;;;;0.20;0.20;;;8.00;99.90;;;;;;5029432;28;20045;-74
2023/12/15 10:39:14;;;;;;;0.20;0.20;;;8.00;99.90;;;;;;5042040;28;20089;-74
2023/12/15 10:41:40;;;;;;;0.20;0.20;;;8.00;99.90;;;;;;5031401;28;20049;-74
2023/12/15 10:44:07;;;;;;;0.20;0.20;;;8.10;99.90;;;;;;5035463;28;20049;-74
2023/12/15 10:46:33;;;;;;;0.20;0.20;;;8.10;99.90;;;;;;5037950;28;20053;-74
2023/12/15 10:49:00;;;;;;;0.20;0.20;;;8.20;99.90;;;;;;5040262;28;20405;-74
2023/12/15 10:51:26;;;;;;;0.20;0.20;;;8.30;99.90;;;;;;5046736;28;20124;-78
2023/12/15 10:53:56;;;;;;;0.20;0.20;;;8.20;99.90;;;;;;5032639;28;20087;-74
2023/12/15 10:56:22;;;;;;;0.20;0.20;;;8.30;99.90;;;;;;5040992;28;20040;-73
2023/12/15 10:58:49;;;;;;;0.20;0.20;;;8.40;99.90;;;;;;5041747;28;20063;-74
2023/12/15 11:01:16;;;;;;;0.20;0.20;;;8.40;99.90;;;;;;5037819;28;20041;-74
2023/12/15 11:03:42;;;;;;;0.10;0.10;;;8.40;99.90;;;;;;5033252;28;20055;-73
2023/12/15 11:06:09;;;;;;;0.20;0.20;;;8.40;99.90;;;;;;5029605;28;20049;-74
2023/12/15 11:08:35;;;;;;;0.20;0.20;;;8.50;99.90;;;;;;5032043;28;20119;-74
2023/12/15 11:11:07;;;;;;;0.10;0.10;;;8.50;99.90;;;;;;5034886;28;20152;-74
2023/12/15 11:13:53;;;;;;;0.13;0.13;;;8.50;99.90;;;;;;5040406;28;20088;-74
2023/12/15 11:16:22;;;;;;;0.20;0.20;;;8.50;99.90;;;;;;5046356;28;20041;-74
2023/12/15 11:18:51;;;;;;;0.10;0.10;;;8.50;99.90;;;;;;5040217;28;20094;-74
2023/12/15 11:21:19;;;;;;;0.10;0.10;;;8.60;99.90;;;;;;5036648;28;20104;-74
2023/12/15 11:23:59;;;;;;;0.20;0.20;;;8.60;99.90;;;;;;5028554;28;20095;-76
2023/12/15 11:26:42;;;;;;;0.10;0.10;;;8.60;99.90;;;;;;5029452;28;20045;-75
2023/12/15 11:29:12;;;;;;;0.20;0.20;;;8.70;99.90;;;;;;5029107;28;20037;-76
2023/12/15 11:31:40;;;;;;;0.20;0.20;;;8.70;99.90;;;;;;5043278;28;20040;-76
2023/12/15 11:34:07;;;;;;;0.20;0.20;;;8.70;99.90;;;;;;5037664;28;20091;-76
2023/12/15 11:36:41;;;;;;;0.10;0.10;;;8.90;99.90;;;;;;5029668;28;20075;-76
2023/12/15 11:39:12;;;;;;;0.20;0.20;;;9.00;99.90;;;;;;5028468;28;20099;-76
2023/12/15 11:41:38;;;;;;;0.20;0.20;;;9.10;99.90;;;;;;5030271;28;20049;-75
2023/12/15 11:44:04;;;;;;;0.20;0.20;;;9.30;99.90;;;;;;5029510;28;20096;-75
2023/12/15 11:46:30;;;;;;;0.10;0.10;;;9.40;99.90;;;;;;5031358;28;20045;-76
2023/12/15 11:48:55;;;;;;;0.20;0.20;;;9.50;99.90;;;;;;5028978;28;20058;-75
2023/12/15 11:51:28;;;;;;;0.15;0.15;;;9.50;99.90;;;;;;5028646;28;20084;-75
2023/12/15 11:53:55;;;;;;;0.20;0.20;;;9.60;99.90;;;;;;5028464;28;20056;-75
2023/12/15 11:56:21;;;;;;;0.10;0.10;;;9.60;99.90;;;;;;5030490;28;20048;-75
2023/12/15 11:58:46;;;;;;;0.15;0.15;;;9.80;99.90;;;;;;5028960;28;20041;-76
2023/12/15 12:01:15;;;;;;;0.20;0.20;;;10.10;99.90;;;;;;5028845;28;20214;-75
2023/12/15 12:03:43;;;;;;;0.20;0.20;;;10.30;99.90;;;;;;5029634;28;20045;-76
2023/12/15 12:06:09;;;;;;;0.20;0.20;;;10.70;99.90;;;;;;5029947;28;20437;-75
2023/12/15 12:08:36;;;;;;;0.20;0.20;;;11.30;99.90;;;;;;5029392;28;20064;-75
2023/12/15 12:11:02;;;;;;;0.17;0.17;;;11.50;99.90;;;;;;5026831;28;20154;-77
2023/12/15 12:13:35;;;;;;;0.20;0.20;;;11.50;99.90;;;;;;5029212;28;20072;-76
2023/12/15 12:16:02;;;;;;;1.85;0.77;;;11.50;99.90;;;;;;5029443;28;20079;-75
2023/12/15 12:18:30;;;;;;;0.20;0.20;;;11.50;99.90;;;;;;5028150;28;20216;-76
2023/12/15 12:20:58;;;;;;;0.25;0.25;;;11.30;99.90;;;;;;5028067;28;20128;-76
2023/12/15 12:23:28;;;;;;;0.10;0.10;;;11.20;99.90;;;;;;5029090;28;20037;-76
2023/12/15 12:25:56;;;;;;;0.20;0.20;;;11.10;99.90;;;;;;5027086;28;20062;-76
2023/12/15 12:28:25;;;;;;;0.10;0.10;;;11.00;99.90;;;;;;5032611;28;20451;-75
2023/12/15 12:30:51;;;;;;;0.20;0.20;;;10.80;99.90;;;;;;5048684;28;20491;-76
2023/12/15 12:33:19;;;;;;;0.13;0.13;;;10.60;99.90;;;;;;5044161;28;20103;-76
2023/12/15 12:35:45;;;;;;;0.10;0.10;;;10.50;99.90;;;;;;5030359;28;20049;-76
2023/12/15 12:38:10;;;;;;;0.20;0.20;;;10.30;99.90;;;;;;5028825;28;20424;-75
2023/12/15 12:40:36;;;;;;;0.20;0.20;;;10.20;99.90;;;;;;5027872;28;20057;-76
2023/12/15 12:43:02;;;;;;;0.10;0.10;;;10.00;99.90;;;;;;5028036;28;20151;-76
2023/12/15 12:45:28;;;;;;;0.10;0.10;;;9.90;99.90;;;;;;5029077;28;20048;-76
2023/12/15 12:47:54;;;;;;;0.10;0.10;;;9.90;99.90;;;;;;5032794;28;20053;-76
2023/12/15 12:50:21;;;;;;;0.20;0.20;;;9.90;99.90;;;;;;5044975;28;20515;-76
2023/12/15 12:52:47;;;;;;;0.20;0.20;;;9.70;99.90;;;;;;5030262;28;20057;-76
2023/12/15 12:55:13;;;;;;;0.15;0.15;;;9.80;99.90;;;;;;5013281;28;20051;-75
2023/12/15 12:57:39;;;;;;;0.20;0.20;;;9.70;99.90;;;;;;5039916;28;20060;-75
2023/12/15 13:00:08;;;;;;;0.20;0.20;;;10.00;99.90;;;;;;5036865;28;20044;-74
2023/12/15 13:02:42;;;;;;;0.20;0.20;;;9.70;99.90;;;;;;5044136;28;20042;-74
2023/12/15 13:05:11;;;;;;;0.20;0.20;;;9.70;99.90;;;;;;5031988;28;20052;-75
2023/12/15 13:07:37;;;;;;;0.17;0.17;;;9.70;99.90;;;;;;5032140;28;20095;-75
2023/12/15 13:10:08;;;;;;;0.20;0.20;;;9.70;99.90;;;;;;5037513;28;20484;-75
2023/12/15 13:12:34;;;;;;;;;;;9.70;99.90;;;;;;5051586;28;20045;-75
2023/12/15 13:15:00;;;;;;;0.20;0.20;;;9.80;99.90;;;;;;5039921;28;19936;-75
2023/12/15 13:17:26;;;;;;;0.20;0.20;;;9.80;99.90;;;;;;5033005;28;20045;-74
2023/12/15 13:19:52;;;;;;;0.20;0.20;;;9.70;99.90;;;;;;5033036;28;20508;-75
2023/12/15 13:22:17;;;;;;;0.15;0.15;;;9.60;99.90;;;;;;5038545;28;20045;-74
2023/12/15 13:24:43;;;;;;;0.20;0.20;;;9.70;99.90;;;;;;5041540;28;20258;-74
2023/12/15 13:27:09;;;;;;;0.20;0.20;;;9.70;99.90;;;;;;5040530;28;20520;-73
2023/12/15 13:29:35;;;;;;;0.20;0.20;;;9.70;99.90;;;;;;5037496;28;20073;-74
2023/12/15 13:32:00;;;;;;;0.20;0.20;;;9.70;99.90;;;;;;5039315;28;20045;-74
2023/12/15 13:34:26;;;;;;;0.20;0.20;;;9.80;99.90;;;;;;5051864;28;20049;-74
2023/12/15 13:36:53;;;;;;;0.20;0.20;;;9.70;99.90;;;;;;5043535;28;20072;-75
2023/12/15 13:39:19;;;;;;;0.20;0.20;;;9.80;99.90;;;;;;5047493;28;20073;-73
2023/12/15 13:41:48;;;;;;;0.20;0.20;;;9.80;99.90;;;;;;5050588;28;20515;-73
2023/12/15 13:44:14;;;;;;;0.20;0.20;;;9.70;99.90;;;;;;5046345;28;20488;-74
2023/12/15 13:46:40;;;;;;;0.20;0.20;;;9.70;99.90;;;;;;5036058;28;20396;-74
2023/12/15 13:49:06;;;;;;;0.20;0.20;;;9.70;99.90;;;;;;5031867;28;20049;-77
2023/12/15 13:51:32;;;;;;;0.55;0.30;;;9.70;99.90;;;;;;5045621;28;20041;-74
2023/12/15 13:53:58;;;;;;;0.20;0.20;;;9.70;99.90;;;;;;5048842;28;20117;-74
2023/12/15 13:56:24;;;;;;;0.20;0.20;;;9.70;99.90;;;;;;5043492;28;20424;-75
2023/12/15 13:58:50;;;;;;;0.10;0.10;;;9.70;99.90;;;;;;5055795;28;20059;-75
2023/12/15 14:01:16;;;;;;;0.10;0.10;;;9.60;99.90;;;;;;5032568;28;20440;-72
2023/12/15 14:03:43;;;;;;;0.13;0.13;;;9.60;99.90;;;;;;5034192;28;20064;-72
2023/12/15 14:06:11;;;;;;;0.10;0.10;;;9.50;99.90;;;;;;5034783;28;20124;-73
2023/12/15 14:08:37;;;;;;;0.10;0.10;;;9.50;99.90;;;;;;5044413;28;20045;-72
2023/12/15 14:11:04;;;;;;;0.20;0.20;;;9.40;99.90;;;;;;5031573;28;20107;-72
2023/12/15 14:13:30;;;;;;;0.20;0.20;;;9.40;99.90;;;;;;5033587;28;20053;-71
2023/12/15 14:15:56;;;;;;;0.20;0.20;;;9.40;99.90;;;;;;5049487;28;20070;-71
2023/12/15 14:18:22;;;;;;;0.20;0.20;;;9.30;99.90;;;;;;5046107;28;20124;-73
2023/12/15 14:20:48;;;;;;;0.20;0.20;;;9.30;99.90;;;;;;5032777;28;20133;-71
2023/12/15 14:23:14;;;;;;;0.20;0.20;;;9.20;99.90;;;;;;5034397;28;20095;-71
2023/12/15 14:25:39;;;;;;;0.20;0.20;;;9.20;99.90;;;;;;5044590;28;20515;-71
2023/12/15 14:28:05;;;;;;;0.10;0.10;;;9.20;99.90;;;;;;5050690;28;20043;-71
2023/12/15 14:30:31;;;;;;;0.20;0.20;;;9.20;99.90;;;;;;5043323;28;20037;-71
2023/12/15 14:32:58;;;;;;;0.20;0.20;;;9.10;99.90;;;;;;5044054;28;20071;-71
2023/12/15 14:35:24;;;;;;;0.20;0.20;;;9.10;99.90;;;;;;5047414;28;20048;-71
2023/12/15 14:37:50;;;;;;;0.20;0.20;;;9.10;99.90;;;;;;5035893;28;20053;-71
2023/12/15 14:40:15;;;;;;;0.10;0.10;;;9.00;99.90;;;;;;5040555;28;20447;-71
2023/12/15 14:42:41;;;;;;;0.10;0.10;;;9.00;99.90;;;;;;5037089;28;20044;-71
2023/12/15 14:45:07;;;;;;;0.20;0.20;;;9.00;99.90;;;;;;5046612;28;20051;-71
2023/12/15 14:47:33;;;;;;;0.20;0.20;;;8.90;99.90;;;;;;5029169;28;20053;-73
2023/12/15 14:49:59;;;;;;;0.20;0.20;;;8.90;99.90;;;;;;5028273;28;20049;-73
2023/12/15 14:52:24;;;;;;;0.20;0.20;;;8.90;99.90;;;;;;5041869;28;20041;-73
2023/12/15 14:54:50;;;;;;;0.20;0.20;;;8.80;99.90;;;;;;5041570;28;20044;-73
2023/12/15 14:57:16;;;;;;;0.20;0.20;;;8.80;99.90;;;;;;5049105;28;20124;-72
2023/12/15 14:59:41;;;;;;;0.20;0.20;;;8.70;99.90;;;;;;5048524;28;20036;-73
2023/12/15 15:02:08;;;;;;;0.20;0.20;;;8.70;99.90;;;;;;5048033;28;20056;-73
2023/12/15 15:04:34;;;;;;;0.20;0.20;;;8.60;99.90;;;;;;5050116;28;20045;-73
2023/12/15 15:06:59;;;;;;;0.20;0.20;;;8.60;99.90;;;;;;5048838;28;20895;-73
2023/12/15 15:09:25;;;;;;;0.20;0.20;;;8.60;99.90;;;;;;5048706;28;20052;-74
2023/12/15 15:11:51;;;;;;;0.20;0.20;;;8.50;99.90;;;;;;5043310;28;20049;-73
2023/12/15 15:14:16;;;;;;;0.20;0.20;;;8.50;99.90;;;;;;5027547;28;20497;-73
2023/12/15 15:16:42;;;;;;;0.20;0.20;;;8.40;99.90;;;;;;5030312;28;20049;-74
2023/12/15 15:19:08;;;;;;;0.20;0.20;;;8.40;99.90;;;;;;5030689;28;20743;-73
2023/12/15 15:21:33;;;;;;;0.17;0.17;;;8.30;99.90;;;;;;5045143;28;20091;-73
2023/12/15 15:23:59;;;;;;;0.10;0.10;;;8.30;99.90;;;;;;5048385;28;20095;-73
2023/12/15 15:26:27;;;;;;;0.20;0.20;;;8.30;99.90;;;;;;5049512;28;20041;-73
2023/12/15 15:28:53;;;;;;;0.20;0.20;;;8.20;99.90;;;;;;5049231;28;20049;-73
2023/12/15 15:31:19;;;;;;;0.10;0.10;;;8.20;99.90;;;;;;5049768;28;20041;-73
2023/12/15 15:33:44;;;;;;;0.20;0.20;;;8.10;99.90;;;;;;5049884;28;20056;-73
2023/12/15 15:36:10;;;;;;;0.20;0.20;;;8.10;99.90;;;;;;5030583;28;20055;-73
2023/12/15 15:38:36;;;;;;;0.20;0.20;;;8.10;99.90;;;;;;5040809;28;20127;-73
2023/12/15 15:41:08;;;;;;;0.10;0.10;;;8.00;99.90;;;;;;5048041;28;20119;-73
2023/12/15 15:43:36;;;;;;;0.20;0.20;;;8.00;99.90;;;;;;5040832;28;20035;-74
2023/12/15 15:46:03;;;;;;;0.10;0.10;;;8.00;99.90;;;;;;5046408;28;20055;-74
2023/12/15 15:48:30;;;;;;;0.20;0.20;;;7.90;99.90;;;;;;5034250;28;20133;-73
2023/12/15 15:50:56;;;;;;;0.20;0.20;;;7.90;99.90;;;;;;5027402;28;20053;-74
2023/12/15 15:53:22;;;;;;;0.20;0.20;;;7.90;99.90;;;;;;5043812;28;20101;-73
2023/12/15 15:55:54;;;;;;;0.20;0.20;;;7.90;99.90;;;;;;5046988;28;20057;-73
2023/12/15 15:58:20;;;;;;;0.20;0.20;;;7.80;99.90;;;;;;5047616;28;20044;-73
2023/12/15 16:00:46;;;;;;;0.32;0.30;;;7.80;99.90;;;;;;5029578;28;20045;-73
2023/12/15 16:03:12;;;;;;;0.20;0.20;;;7.80;99.90;;;;;;5028443;28;20049;-72
2023/12/15 16:05:38;;;;;;;0.15;0.15;;;7.70;99.90;;;;;;5029877;28;20053;-72
2023/12/15 16:08:04;;;;;;;0.20;0.20;;;7.70;99.90;;;;;;5029334;28;20120;-72
2023/12/15 16:10:30;;;;;;;0.20;0.20;;;7.70;99.90;;;;;;5028347;28;20454;-72
2023/12/15 16:12:56;;;;;;;0.20;0.20;;;7.60;99.90;;;;;;5041321;28;20053;-72
2023/12/15 16:15:23;;;;;;;0.20;0.20;;;7.60;99.90;;;;;;5028339;28;20624;-72
2023/12/15 16:17:48;;;;;;;0.20;0.20;;;7.60;99.90;;;;;;5029246;28;20392;-72
2023/12/15 16:20:14;;;;;;;0.10;0.10;;;7.50;99.90;;;;;;5028527;28;20034;-72
2023/12/15 16:22:41;;;;;;;0.20;0.20;;;7.50;99.90;;;;;;5029674;28;20473;-72
2023/12/15 16:25:10;;;;;;;0.20;0.20;;;7.50;99.90;;;;;;5026615;28;20227;-72
2023/12/15 16:27:36;;;;;;;0.10;0.10;;;7.60;99.90;;;;;;5039819;28;20133;-73
2023/12/15 16:30:02;;;;;;;0.10;0.10;;;7.50;99.90;;;;;;5037409;28;20527;-73
2023/12/15 16:32:28;;;;;;;0.20;0.20;;;7.40;99.90;;;;;;5048812;28;20049;-74
2023/12/15 16:34:55;;;;;;;0.20;0.20;;;7.40;99.90;;;;;;5035479;28;20527;-73
2023/12/15 16:37:21;;;;;;;0.20;0.20;;;7.40;99.90;;;;;;5046561;28;20053;-73
2023/12/15 16:39:47;;;;;;;0.20;0.20;;;7.40;99.90;;;;;;5050721;28;20045;-73
2023/12/15 16:42:13;;;;;;;0.20;0.20;;;7.30;99.90;;;;;;5052741;28;20067;-73
2023/12/15 16:44:50;;;;;;;0.20;0.20;;;7.30;99.90;;;;;;5051577;28;20061;-73
2023/12/15 16:47:16;;;;;;;0.13;0.13;;;7.30;99.90;;;;;;5051097;28;20546;-73
2023/12/15 16:49:42;;;;;;;0.20;0.20;;;6.60;99.90;;;;;;5049565;28;20461;-73
2023/12/15 16:52:09;;;;;;;0.20;0.20;;;7.30;99.90;;;;;;5048781;28;20077;-73
2023/12/15 16:54:34;;;;;;;0.20;0.20;;;7.30;99.90;;;;;;5038868;28;20037;-73
2023/12/15 16:57:01;;;;;;;0.20;0.20;;;7.30;99.90;;;;;;5039032;28;20041;-73
2023/12/15 16:59:26;;;;;;;0.20;0.20;;;7.30;99.90;;;;;;5034714;28;20033;-73
2023/12/15 17:01:52;;;;;;;0.20;0.20;;;7.30;99.90;;;;;;5036982;28;20491;-73
2023/12/15 17:04:18;;;;;;;0.20;0.20;;;7.30;99.90;;;;;;5050137;28;20099;-74
2023/12/15 17:06:44;;;;;;;0.20;0.20;;;7.30;99.90;;;;;;5050454;28;20587;-73
2023/12/15 17:09:10;;;;;;;0.20;0.20;;;7.30;99.90;;;;;;5050337;28;20061;-73
2023/12/15 17:11:36;;;;;;;0.20;0.20;;;7.30;99.90;;;;;;5033367;28;20381;-73
2023/12/15 17:14:02;;;;;;;0.20;0.20;;;7.30;99.90;;;;;;5030679;28;20064;-74
2023/12/15 17:16:28;;;;;;;0.20;0.20;;;7.30;99.90;;;;;;5030856;28;20119;-74
2023/12/15 17:18:54;;;;;;;0.20;0.20;;;7.30;99.90;;;;;;5033975;28;20052;-74
2023/12/15 17:21:20;;;;;;;0.20;0.20;;;7.30;99.90;;;;;;5031419;28;20045;-73
2023/12/15 17:23:47;;;;;;;0.20;0.20;;;7.30;99.90;;;;;;5031969;28;20049;-73
2023/12/15 17:26:19;;;;;;;0.20;0.20;;;7.30;99.90;;;;;;5030282;28;20473;-73
2023/12/15 17:28:45;;;;;;;0.20;0.20;;;7.20;99.90;;;;;;5034935;28;20405;-73
2023/12/15 17:31:11;;;;;;;0.20;0.20;;;7.30;99.90;;;;;;5039680;28;20057;-73
2023/12/15 17:33:37;;;;;;;0.20;0.20;;;7.20;99.90;;;;;;5032693;28;20092;-73
2023/12/15 17:36:03;;;;;;;0.15;0.15;;;7.20;99.90;;;;;;5044613;28;20041;-73
2023/12/15 17:38:29;;;;;;;0.20;0.20;;;7.20;99.90;;;;;;5049117;28;20080;-73
2023/12/15 17:40:54;;;;;;;0.20;0.20;;;7.20;99.90;;;;;;5050386;28;20472;-73
2023/12/15 17:43:22;;;;;;;0.20;0.20;;;7.20;99.90;;;;;;5052503;28;20075;-73
2023/12/15 17:45:48;;;;;;;0.20;0.20;;;7.20;99.90;;;;;;5051047;28;20049;-73
2023/12/15 17:48:15;;;;;;;0.20;0.20;;;7.20;99.90;;;;;;5048415;28;20390;-74
2023/12/15 17:50:42;;;;;;;0.20;0.20;;;7.20;99.90;;;;;;5030788;28;20413;-73
2023/12/15 17:53:07;;;;;;;0.13;0.13;;;7.20;99.90;;;;;;5033607;28;20089;-73
2023/12/15 17:55:34;;;;;;;0.20;0.20;;;7.20;99.90;;;;;;5037738;28;20045;-74
2023/12/15 17:58:04;;;;;;;0.20;0.20;;;7.10;99.90;;;;;;5047922;28;20048;-73
2023/12/15 18:00:31;;;;;;;0.20;0.20;;;7.10;99.90;;;;;;5051556;28;20071;-73
2023/12/15 18:02:56;;;;;;;0.20;0.20;;;7.10;99.90;;;;;;5050666;28;20049;-73
2023/12/15 18:05:23;;;;;;;0.20;0.20;;;7.10;99.90;;;;;;5047837;28;20400;-75
2023/12/15 18:07:49;;;;;;;0.20;0.20;;;7.10;99.90;;;;;;5030781;28;20134;-81
2023/12/15 18:10:20;;;;;;;0.20;0.20;;;7.10;99.90;;;;;;5044117;28;20491;-81
2023/12/15 18:12:46;;;;;;;0.20;0.20;;;7.10;99.90;;;;;;5036419;28;20044;-80
2023/12/15 18:15:13;;;;;;;0.20;0.20;;;7.00;99.90;;;;;;5033850;28;20133;-81
2023/12/15 18:17:39;;;;;;;0.10;0.10;;;7.10;99.90;;;;;;5045188;28;20052;-81
2023/12/15 18:20:06;;;;;;;0.20;0.20;;;7.00;99.90;;;;;;5044967;28;20041;-81
2023/12/15 18:22:34;;;;;;;0.17;0.17;;;7.00;99.90;;;;;;5032634;28;20132;-81
2023/12/15 18:25:00;;;;;;;0.10;0.10;;;7.00;99.90;;;;;;5044441;28;20132;-81
2023/12/15 18:27:25;;;;;;;0.20;0.20;;;7.50;99.90;;;;;;5042980;28;20544;-82
2023/12/15 18:29:51;;;;;;;0.20;0.20;;;7.50;99.90;;;;;;5048311;28;20216;-81
2023/12/15 18:32:17;;;;;;;0.20;0.20;;;7.00;99.90;;;;;;5036553;28;20044;-81
2023/12/15 18:34:43;;;;;;;0.20;0.20;;;7.10;99.90;;;;;;5045862;28;20107;-82
2023/12/15 18:37:09;;;;;;;0.20;0.20;;;6.90;99.90;;;;;;5037516;28;20046;-81
2023/12/15 18:39:36;;;;;;;0.20;0.20;;;7.00;99.90;;;;;;5045402;28;20045;-81
2023/12/15 18:42:02;;;;;;;0.20;0.20;;;6.90;99.90;;;;;;5048735;28;20049;-81
2023/12/15 18:44:28;;;;;;;0.20;0.20;;;6.90;99.90;;;;;;5050836;28;20051;-81
2023/12/15 18:46:54;;;;;;;0.20;0.20;;;6.90;99.90;;;;;;5046682;28;20115;-81
2023/12/15 18:49:20;;;;;;;0.15;0.15;;;7.00;99.90;;;;;;5045246;28;20454;-81
2023/12/15 18:51:46;;;;;;;0.20;0.20;;;6.80;99.90;;;;;;5028734;28;20037;-81
2023/12/15 18:54:13;;;;;;;0.20;0.20;;;6.80;99.90;;;;;;5028058;28;20566;-81
2023/12/15 18:56:40;;;;;;;0.20;0.20;;;6.80;99.90;;;;;;5029026;28;20428;-81
2023/12/15 18:59:05;;;;;;;0.10;0.10;;;6.80;99.90;;;;;;5031480;28;20099;-81
2023/12/15 19:01:33;;;;;;;0.20;0.20;;;7.60;99.90;;;;;;5050053;28;20068;-81
2023/12/15 19:03:59;;;;;;;0.20;0.20;;;6.70;99.90;;;;;;5046824;28;20088;-80
2023/12/15 19:06:25;;;;;;;0.20;0.20;;;6.70;99.90;;;;;;5046976;28;20075;-80
2023/12/15 19:08:52;;;;;;;0.20;0.20;;;6.70;99.90;;;;;;5044219;28;20069;-81
2023/12/15 19:11:28;;;;;;;0.20;0.20;;;7.20;99.90;;;;;;5036922;28;20046;-81
2023/12/15 19:13:54;;;;;;;0.10;0.10;;;6.60;99.90;;;;;;5028355;28;20061;-81
2023/12/15 19:16:20;;;;;;;0.20;0.20;;;6.90;99.90;;;;;;5027987;28;20087;-80
2023/12/15 19:18:46;;;;;;;0.20;0.20;;;6.60;99.90;;;;;;5046971;28;20044;-81
2023/12/15 19:21:12;;;;;;;0.20;0.20;;;6.60;99.90;;;;;;5047770;28;20446;-81
2023/12/15 19:23:38;;;;;;;0.10;0.10;;;6.60;99.90;;;;;;5041675;28;20431;-80
2023/12/15 19:26:04;;;;;;;0.20;0.20;;;6.50;99.90;;;;;;5027283;28;20045;-80
2023/12/15 19:28:30;;;;;;;0.20;0.20;;;6.50;99.90;;;;;;5035498;28;20392;-81
2023/12/15 19:30:55;;;;;;;0.13;0.13;;;6.50;99.90;;;;;;5035883;28;20053;-80
2023/12/15 19:33:21;;;;;;;0.20;0.20;;;7.70;99.90;;;;;;5030200;28;20539;-81
2023/12/15 19:35:47;;;;;;;0.20;0.20;;;6.50;99.90;;;;;;5047995;28;20167;-80
2023/12/15 19:38:13;;;;;;;0.20;0.20;;;6.60;99.90;;;;;;5048527;28;20055;-80
2023/12/15 19:40:38;;;;;;;0.20;0.20;;;7.50;99.90;;;;;;5042805;28;20473;-81
2023/12/15 19:43:06;;;;;;;0.20;0.20;;;7.40;99.90;;;;;;5038283;28;20043;-81
2023/12/15 19:45:31;;;;;;;0.17;0.17;;;6.50;99.90;;;;;;5034276;28;20400;-80
2023/12/15 19:47:57;;;;;;;0.20;0.20;;;6.50;99.90;;;;;;5033878;28;20045;-81
2023/12/15 19:50:23;;;;;;;0.20;0.20;;;7.50;99.90;;;;;;5026843;28;20096;-81
2023/12/15 19:52:49;;;;;;;0.15;0.15;;;6.50;99.90;;;;;;5032014;28;20565;-81
2023/12/15 19:55:15;;;;;;;0.20;0.20;;;6.50;99.90;;;;;;5025050;28;20045;-81
2023/12/15 19:57:42;;;;;;;0.10;0.10;;;6.60;99.90;;;;;;5029739;28;20033;-82
2023/12/15 20:00:09;;;;;;;0.20;0.20;;;7.40;99.90;;;;;;5028163;28;20432;-81
2023/12/15 20:02:35;;;;;;;0.20;0.20;;;6.40;99.90;;;;;;5031882;28;20029;-81
2023/12/15 20:05:04;;;;;;;0.20;0.20;;;6.70;99.90;;;;;;5027867;28;20038;-80
2023/12/15 20:07:31;;;;;;;0.10;0.10;;;6.70;99.90;;;;;;5041559;28;20540;-80
2023/12/15 20:09:57;;;;;;;0.20;0.20;;;6.40;99.90;;;;;;5038755;28;20126;-80
2023/12/15 20:12:22;;;;;;;0.20;0.20;;;6.60;99.90;;;;;;5037692;28;20080;-81
2023/12/15 20:14:48;;;;;;;0.20;0.20;;;6.40;99.90;;;;;;5048764;28;20072;-80
2023/12/15 20:17:14;;;;;;;0.15;0.15;;;6.40;99.90;;;;;;5040894;28;20038;-80
2023/12/15 20:19:40;;;;;;;0.20;0.20;;;6.30;99.90;;;;;;5027524;28;20048;-81
2023/12/15 20:22:08;;;;;;;0.20;0.20;;;6.30;99.90;;;;;;5028452;28;20527;-81
2023/12/15 20:24:39;;;;;;;0.20;0.20;;;7.00;99.90;;;;;;5027206;28;20128;-81
2023/12/15 20:27:10;;;;;;;0.20;0.20;;;6.30;99.90;;;;;;5042063;28;20051;-82
2023/12/15 20:29:36;;;;;;;0.20;0.20;;;6.40;99.90;;;;;;5047893;28;20055;-81
2023/12/15 20:32:02;;;;;;;0.20;0.20;;;6.50;99.90;;;;;;5047599;28;20291;-81
2023/12/15 20:34:28;;;;;;;0.20;0.20;;;6.30;99.90;;;;;;5035269;28;20120;-81
2023/12/15 20:36:54;;;;;;;0.20;0.20;;;7.50;99.90;;;;;;5049031;28;20052;-82
2023/12/15 20:39:19;;;;;;;0.20;0.20;;;7.20;99.90;;;;;;5038980;28;20044;-81
2023/12/15 20:41:45;;;;;;;0.20;0.20;;;6.40;99.90;;;;;;5035154;28;20397;-82
2023/12/15 20:44:11;;;;;;;0.10;0.10;;;6.40;99.90;;;;;;5039671;28;20049;-81
2023/12/15 20:46:37;;;;;;;0.10;0.10;;;6.40;99.90;;;;;;5035042;28;20103;-81
2023/12/15 20:49:04;;;;;;;0.15;0.15;;;6.50;99.90;;;;;;5034961;28;20048;-81
2023/12/15 20:51:29;;;;;;;0.20;0.20;;;6.80;99.90;;;;;;5038781;28;20038;-81
2023/12/15 20:53:55;;;;;;;0.20;0.20;;;6.50;99.90;;;;;;5029312;28;20099;-81
2023/12/15 20:56:25;;;;;;;0.20;0.20;;;7.00;99.90;;;;;;5032179;28;20539;-81
2023/12/15 20:58:51;;;;;;;0.20;0.20;;;6.70;99.90;;;;;;5027443;28;20037;-81
2023/12/15 21:01:17;;;;;;;0.20;0.20;;;6.60;99.90;;;;;;5031186;28;20044;-81
2023/12/15 21:03:49;;;;;;;0.20;0.20;;;6.60;99.90;;;;;;5026890;28;20132;-81
2023/12/15 21:06:19;;;;;;;0.20;0.20;;;7.10;99.90;;;;;;5027813;28;20049;-80
2023/12/15 21:08:46;;;;;;;0.20;0.20;;;6.70;99.90;;;;;;5028788;28;20040;-81